Time;durP1;ratioP1;P1;durP2;ratioP2;P2;SDS_P1;SDS_P2;PMS_P1;PMS_P2;Temp;Humidity;BMP_temperature;BMP_pressure;BME280_temperature;BME280_humidity;BME280_pressure;Samples;Min_cycle;Max_cycle;Signal;HPM_P1;HPM_P2
2023/05/07 00:00:07;;;;;;;21.48;19.23;;;19.30;60.30;;;;;;5113375;28;20180;-60
2023/05/07 00:02:33;;;;;;;21.98;19.70;;;19.30;60.30;;;;;;5112353;28;20659;-60
2023/05/07 00:04:59;;;;;;;21.55;19.20;;;19.30;60.30;;;;;;5113696;28;20186;-60
2023/05/07 00:07:24;;;;;;;20.83;18.63;;;19.30;60.30;;;;;;5113229;28;20177;-60
2023/05/07 00:09:50;;;;;;;20.48;18.13;;;19.30;60.40;;;;;;5112838;28;20575;-60
2023/05/07 00:12:15;;;;;;;21.23;19.02;;;19.30;60.30;;;;;;5113001;28;20708;-59
2023/05/07 00:14:41;;;;;;;20.23;18.08;;;19.30;60.30;;;;;;5113409;28;20169;-59
2023/05/07 00:17:06;;;;;;;19.70;17.27;;;19.30;60.30;;;;;;5112704;28;20177;-59
2023/05/07 00:19:32;;;;;;;19.02;17.05;;;19.30;60.30;;;;;;5113497;28;20174;-59
2023/05/07 00:21:58;;;;;;;20.10;17.90;;;19.30;60.30;;;;;;5112710;28;20274;-59
2023/05/07 00:24:23;;;;;;;18.65;16.75;;;19.20;60.30;;;;;;5111936;28;20178;-60
2023/05/07 00:26:49;;;;;;;19.35;17.35;;;19.20;60.30;;;;;;5112973;28;20177;-60
2023/05/07 00:29:14;;;;;;;18.08;16.27;;;19.20;60.20;;;;;;5113141;28;20643;-60
2023/05/07 00:31:40;;;;;;;17.75;15.95;;;19.20;60.30;;;;;;5112766;28;20651;-60
2023/05/07 00:34:06;;;;;;;18.13;16.33;;;19.20;60.20;;;;;;5112772;28;20173;-60
2023/05/07 00:36:31;;;;;;;17.52;15.52;;;19.20;60.20;;;;;;5113488;28;20594;-60
2023/05/07 00:38:58;;;;;;;17.35;15.55;;;19.30;60.20;;;;;;5112728;28;20642;-60
2023/05/07 00:41:24;;;;;;;16.52;14.82;;;19.20;60.10;;;;;;5112678;28;20272;-60
2023/05/07 00:43:51;;;;;;;17.77;15.85;;;19.20;60.20;;;;;;5113548;28;20265;-60
2023/05/07 00:46:17;;;;;;;17.30;15.55;;;19.20;60.10;;;;;;5112298;28;20169;-60
2023/05/07 00:48:42;;;;;;;18.17;16.27;;;19.20;60.10;;;;;;5113253;28;20177;-60
2023/05/07 00:51:09;;;;;;;16.13;14.52;;;19.20;60.10;;;;;;5112584;28;20174;-59
2023/05/07 00:53:34;;;;;;;16.80;15.00;;;19.20;60.10;;;;;;5111446;28;20188;-59
2023/05/07 00:56:00;;;;;;;16.00;13.85;;;19.20;60.10;;;;;;5112275;28;20172;-59
2023/05/07 00:58:26;;;;;;;16.70;14.93;;;19.20;60.20;;;;;;5112550;28;20173;-59
2023/05/07 01:00:51;;;;;;;16.05;14.40;;;19.20;60.10;;;;;;5111835;28;20256;-59
2023/05/07 01:03:17;;;;;;;16.02;14.32;;;19.20;60.10;;;;;;5112334;28;20296;-60
2023/05/07 01:05:42;;;;;;;15.98;14.30;;;19.20;60.10;;;;;;5112143;28;20226;-60
2023/05/07 01:08:08;;;;;;;16.30;14.60;;;19.20;60.00;;;;;;5110477;28;20177;-60
2023/05/07 01:10:33;;;;;;;15.35;13.43;;;19.20;60.10;;;;;;5111728;28;20173;-59
2023/05/07 01:13:00;;;;;;;14.40;12.98;;;19.20;60.00;;;;;;5112121;28;20173;-59
2023/05/07 01:15:25;;;;;;;14.73;13.15;;;19.20;60.00;;;;;;5094921;28;20173;-60
2023/05/07 01:17:51;;;;;;;14.98;13.43;;;19.20;60.10;;;;;;5095085;28;20184;-59
2023/05/07 01:20:17;;;;;;;15.35;13.45;;;19.20;60.00;;;;;;5112914;28;20256;-59
2023/05/07 01:22:43;;;;;;;14.90;13.30;;;19.20;60.00;;;;;;5115361;28;20552;-59
2023/05/07 01:25:08;;;;;;;14.38;12.98;;;19.20;60.00;;;;;;5116638;28;20169;-59
2023/05/07 01:27:36;;;;;;;17.42;14.02;;;19.20;60.10;;;;;;5116161;28;20636;-60
2023/05/07 01:30:01;;;;;;;14.45;12.95;;;19.20;60.00;;;;;;5115930;28;20181;-60
2023/05/07 01:32:35;;;;;;;14.90;13.40;;;19.20;60.00;;;;;;5115045;28;20180;-60
2023/05/07 01:35:00;;;;;;;14.70;13.13;;;19.10;60.00;;;;;;5115229;28;20169;-59
2023/05/07 01:37:26;;;;;;;13.85;12.40;;;19.10;60.00;;;;;;5098060;28;20527;-59
2023/05/07 01:39:52;;;;;;;12.88;11.68;;;19.10;60.00;;;;;;5115033;28;20231;-60
2023/05/07 01:42:17;;;;;;;13.38;11.85;;;19.20;60.00;;;;;;5113791;28;20201;-60
2023/05/07 01:44:43;;;;;;;14.65;13.13;;;19.10;60.00;;;;;;5116439;28;20210;-59
2023/05/07 01:47:08;;;;;;;13.73;12.23;;;19.10;60.00;;;;;;5116153;28;20169;-60
2023/05/07 01:49:34;;;;;;;13.77;12.13;;;19.20;60.00;;;;;;5114395;28;20177;-60
2023/05/07 01:52:00;;;;;;;13.05;11.68;;;19.10;60.00;;;;;;5114559;28;20631;-59
2023/05/07 01:54:30;;;;;;;13.25;11.95;;;19.10;59.90;;;;;;5113778;28;20184;-59
2023/05/07 01:56:56;;;;;;;12.95;11.57;;;19.10;59.90;;;;;;5115409;28;20659;-59
2023/05/07 01:59:21;;;;;;;12.48;11.20;;;19.10;59.90;;;;;;5115598;28;20264;-59
2023/05/07 02:01:47;;;;;;;13.77;12.20;;;19.10;59.90;;;;;;5115779;28;20671;-60
2023/05/07 02:04:13;;;;;;;12.15;10.85;;;19.10;59.90;;;;;;5114803;28;20185;-60
2023/05/07 02:06:38;;;;;;;12.25;10.93;;;19.10;59.90;;;;;;5115994;28;20664;-60
2023/05/07 02:09:04;;;;;;;12.95;11.65;;;19.10;60.00;;;;;;5115307;28;20211;-59
2023/05/07 02:11:29;;;;;;;11.75;10.55;;;19.10;60.00;;;;;;5114364;28;20192;-58
2023/05/07 02:13:55;;;;;;;12.57;11.27;;;19.10;59.90;;;;;;5114784;27;20181;-58
2023/05/07 02:16:22;;;;;;;11.70;10.50;;;19.10;60.70;;;;;;5113767;28;20179;-59
2023/05/07 02:18:47;;;;;;;12.50;11.20;;;19.10;59.90;;;;;;5115434;28;20176;-59
2023/05/07 02:21:13;;;;;;;12.35;11.07;;;19.10;59.90;;;;;;5114794;28;20228;-59
2023/05/07 02:23:38;;;;;;;11.43;10.23;;;19.00;59.90;;;;;;5114594;28;20177;-59
2023/05/07 02:26:04;;;;;;;12.23;10.93;;;19.10;59.90;;;;;;5115311;28;20175;-59
2023/05/07 02:28:29;;;;;;;11.27;10.05;;;19.10;59.90;;;;;;5115301;28;20211;-59
2023/05/07 02:30:55;;;;;;;11.32;10.20;;;19.00;59.90;;;;;;5114228;28;20204;-60
2023/05/07 02:33:21;;;;;;;11.38;9.98;;;19.00;59.90;;;;;;5114730;28;20165;-59
2023/05/07 02:35:46;;;;;;;11.70;10.50;;;19.00;59.90;;;;;;5115536;28;20177;-59
2023/05/07 02:38:12;;;;;;;10.68;9.60;;;19.10;60.00;;;;;;5114479;28;20173;-59
2023/05/07 02:40:40;;;;;;;11.80;9.68;;;19.00;59.90;;;;;;5115552;28;20169;-59
2023/05/07 02:43:06;;;;;;;11.25;10.15;;;19.00;59.90;;;;;;5114238;28;20209;-59
2023/05/07 02:45:32;;;;;;;11.50;10.40;;;19.00;59.90;;;;;;5114283;28;20203;-59
2023/05/07 02:47:58;;;;;;;9.82;8.82;;;19.00;59.90;;;;;;5114624;28;20176;-59
2023/05/07 02:50:23;;;;;;;10.05;9.05;;;19.00;59.90;;;;;;5114450;28;20222;-59
2023/05/07 02:52:49;;;;;;;11.13;10.02;;;19.00;59.90;;;;;;5113733;28;20196;-59
2023/05/07 02:55:14;;;;;;;10.63;9.63;;;19.00;59.90;;;;;;5114575;28;20169;-59
2023/05/07 02:57:40;;;;;;;10.05;9.05;;;19.00;59.90;;;;;;5114961;28;20176;-59
2023/05/07 03:00:18;;;;;;;10.05;9.05;;;19.00;59.90;;;;;;5113314;28;20691;-59
2023/05/07 03:02:46;;;;;;;9.70;8.68;;;19.00;59.90;;;;;;5114597;28;20215;-59
2023/05/07 03:05:12;;;;;;;10.00;9.00;;;19.00;59.90;;;;;;5114291;28;20566;-59
2023/05/07 03:07:38;;;;;;;10.32;9.20;;;19.00;59.80;;;;;;5114219;28;20173;-59
2023/05/07 03:10:04;;;;;;;9.02;8.13;;;19.00;59.90;;;;;;5114787;28;20165;-59
2023/05/07 03:12:30;;;;;;;9.82;8.82;;;19.00;59.80;;;;;;5113681;28;20189;-59
2023/05/07 03:14:55;;;;;;;10.48;9.38;;;19.00;59.90;;;;;;5114417;28;20176;-59
2023/05/07 03:17:21;;;;;;;9.73;8.73;;;19.00;59.90;;;;;;5114297;28;20201;-59
2023/05/07 03:19:47;;;;;;;8.48;7.65;;;19.00;59.80;;;;;;5113670;28;20172;-59
2023/05/07 03:22:12;;;;;;;9.77;8.88;;;18.90;59.90;;;;;;5113510;28;20225;-59
2023/05/07 03:24:38;;;;;;;9.65;8.65;;;19.00;60.20;;;;;;5113787;28;20169;-59
2023/05/07 03:27:03;;;;;;;8.88;8.00;;;19.00;59.80;;;;;;5113556;28;20169;-59
2023/05/07 03:29:29;;;;;;;9.77;8.82;;;19.00;60.60;;;;;;5113902;28;20188;-59
2023/05/07 03:31:55;;;;;;;9.00;8.10;;;19.00;59.80;;;;;;5113577;28;20716;-59
2023/05/07 03:34:21;;;;;;;9.15;8.25;;;19.00;59.80;;;;;;5113433;28;20256;-59
2023/05/07 03:36:48;;;;;;;8.73;7.93;;;19.00;59.80;;;;;;5114166;28;20177;-59
2023/05/07 03:39:14;;;;;;;9.00;8.10;;;19.00;59.80;;;;;;5113352;28;20184;-59
2023/05/07 03:41:40;;;;;;;8.45;7.47;;;19.00;59.80;;;;;;5112774;28;20201;-59
2023/05/07 03:44:05;;;;;;;9.02;8.13;;;19.00;59.80;;;;;;5112779;28;20181;-59
2023/05/07 03:46:32;;;;;;;9.07;8.20;;;19.00;59.90;;;;;;5114332;28;20517;-59
2023/05/07 03:48:58;;;;;;;9.35;8.45;;;19.00;59.80;;;;;;5113093;28;20189;-59
2023/05/07 03:51:23;;;;;;;9.20;8.30;;;19.00;59.80;;;;;;5113613;28;20188;-59
2023/05/07 03:53:49;;;;;;;7.72;6.95;;;19.00;59.90;;;;;;5114062;28;20180;-59
2023/05/07 03:56:14;;;;;;;7.70;7.00;;;18.90;59.80;;;;;;5112825;28;20177;-59
2023/05/07 03:58:40;;;;;;;8.70;7.90;;;19.00;59.80;;;;;;5113235;28;20173;-59
2023/05/07 04:01:07;;;;;;;8.05;7.25;;;19.00;59.80;;;;;;5113118;28;20199;-59
2023/05/07 04:03:32;;;;;;;8.70;7.90;;;19.00;59.80;;;;;;5113043;28;20221;-59
2023/05/07 04:05:58;;;;;;;8.32;7.38;;;18.90;59.80;;;;;;5113291;28;20224;-59
2023/05/07 04:08:23;;;;;;;7.88;7.05;;;18.90;59.80;;;;;;5112937;28;20581;-59
2023/05/07 04:10:54;;;;;;;7.90;7.10;;;19.00;59.90;;;;;;5112834;28;20578;-59
2023/05/07 04:13:20;;;;;;;8.15;7.35;;;18.90;59.80;;;;;;5113480;28;20252;-59
2023/05/07 04:15:46;;;;;;;8.18;7.38;;;18.90;59.80;;;;;;5112926;28;20264;-59
2023/05/07 04:18:11;;;;;;;7.55;6.85;;;18.90;59.90;;;;;;5113286;28;20177;-59
2023/05/07 04:20:37;;;;;;;7.70;6.95;;;18.90;59.80;;;;;;5113256;28;20181;-58
2023/05/07 04:23:02;;;;;;;7.10;6.43;;;18.90;59.80;;;;;;5111847;28;20714;-58
2023/05/07 04:25:28;;;;;;;7.68;6.88;;;18.90;59.90;;;;;;5112868;28;20177;-59
2023/05/07 04:27:53;;;;;;;7.60;6.80;;;18.90;59.80;;;;;;5112825;28;20264;-59
2023/05/07 04:30:19;;;;;;;7.28;6.55;;;18.90;59.80;;;;;;5112082;28;20173;-61
2023/05/07 04:32:45;;;;;;;7.78;6.97;;;18.90;59.80;;;;;;5112604;28;20177;-61
2023/05/07 04:35:10;;;;;;;7.53;6.72;;;18.90;59.80;;;;;;5113193;28;20183;-61
2023/05/07 04:37:36;;;;;;;7.40;6.60;;;18.90;59.90;;;;;;5112014;28;20173;-60
2023/05/07 04:40:02;;;;;;;7.40;6.57;;;18.90;59.80;;;;;;5112894;28;20686;-60
2023/05/07 04:42:28;;;;;;;7.22;6.53;;;18.90;59.80;;;;;;5112559;28;20326;-60
2023/05/07 04:44:54;;;;;;;7.47;6.75;;;18.90;59.80;;;;;;5112707;28;20256;-60
2023/05/07 04:47:20;;;;;;;7.43;6.68;;;18.90;59.80;;;;;;5112870;28;20692;-61
2023/05/07 04:49:46;;;;;;;6.85;6.25;;;18.90;59.80;;;;;;5113186;28;20177;-60
2023/05/07 04:52:11;;;;;;;6.65;5.95;;;18.90;59.80;;;;;;5112236;28;20184;-60
2023/05/07 04:54:37;;;;;;;6.72;6.10;;;18.90;59.80;;;;;;5114910;28;20169;-60
2023/05/07 04:57:04;;;;;;;8.02;7.00;;;18.90;59.80;;;;;;5117321;28;20168;-60
2023/05/07 04:59:30;;;;;;;7.10;6.40;;;18.90;59.80;;;;;;5116260;28;20625;-60
2023/05/07 05:01:55;;;;;;;6.28;5.72;;;18.90;59.80;;;;;;5117106;28;20297;-61
2023/05/07 05:04:21;;;;;;;6.50;5.90;;;18.90;59.80;;;;;;5117161;28;20196;-61
2023/05/07 05:06:46;;;;;;;7.43;6.68;;;18.90;59.80;;;;;;5116534;28;20533;-61
2023/05/07 05:09:12;;;;;;;6.75;6.15;;;18.90;59.80;;;;;;5116877;28;20181;-60
2023/05/07 05:11:37;;;;;;;6.28;5.68;;;18.90;59.80;;;;;;5117018;28;20177;-60
2023/05/07 05:14:03;;;;;;;6.28;5.68;;;18.90;59.80;;;;;;5114974;28;20200;-60
2023/05/07 05:16:28;;;;;;;6.00;5.40;;;18.90;59.80;;;;;;5116595;28;20252;-60
2023/05/07 05:18:54;;;;;;;6.50;5.90;;;18.90;59.80;;;;;;5116901;28;20188;-60
2023/05/07 05:21:20;;;;;;;5.70;5.20;;;18.90;59.80;;;;;;5115542;28;20224;-62
2023/05/07 05:23:46;;;;;;;6.68;6.13;;;18.90;59.80;;;;;;5116657;28;20173;-60
2023/05/07 05:26:11;;;;;;;6.40;5.80;;;18.90;59.80;;;;;;5114543;28;20261;-61
2023/05/07 05:28:37;;;;;;;6.70;6.03;;;18.90;59.80;;;;;;5116499;28;20187;-61
2023/05/07 05:31:02;;;;;;;5.53;5.03;;;18.90;59.80;;;;;;5116268;28;20169;-61
2023/05/07 05:33:28;;;;;;;5.80;5.30;;;18.90;59.80;;;;;;5114431;28;20539;-61
2023/05/07 05:35:54;;;;;;;6.05;5.45;;;18.90;59.80;;;;;;5116414;28;20585;-61
2023/05/07 05:38:20;;;;;;;6.28;5.68;;;18.80;59.80;;;;;;5116441;28;20173;-61
2023/05/07 05:40:46;;;;;;;6.28;5.68;;;18.90;59.90;;;;;;5115448;28;20221;-61
2023/05/07 05:43:11;;;;;;;6.25;5.32;;;18.90;59.90;;;;;;5116357;28;20213;-61
2023/05/07 05:45:37;;;;;;;5.50;5.00;;;18.90;59.90;;;;;;5116511;28;20636;-61
2023/05/07 05:48:03;;;;;;;6.35;5.38;;;18.90;59.90;;;;;;5115670;28;20748;-61
2023/05/07 05:50:28;;;;;;;5.53;5.03;;;18.90;59.90;;;;;;5115596;28;20177;-61
2023/05/07 05:52:54;;;;;;;5.80;5.30;;;18.90;59.90;;;;;;5115937;28;20173;-60
2023/05/07 05:55:20;;;;;;;6.28;5.68;;;18.90;59.90;;;;;;5115097;28;20532;-60
2023/05/07 05:57:45;;;;;;;6.10;5.50;;;18.90;59.90;;;;;;5115239;28;20173;-60
2023/05/07 06:00:11;;;;;;;5.75;5.07;;;18.90;59.90;;;;;;5115750;28;20177;-61
2023/05/07 06:02:37;;;;;;;5.18;4.78;;;18.90;59.90;;;;;;5114564;28;20205;-61
2023/05/07 06:05:03;;;;;;;5.97;5.38;;;18.90;59.90;;;;;;5115736;28;20242;-61
2023/05/07 06:07:29;;;;;;;5.20;4.70;;;18.90;59.90;;;;;;5114919;28;20260;-61
2023/05/07 06:09:55;;;;;;;6.13;5.53;;;18.90;59.90;;;;;;5114849;28;20256;-60
2023/05/07 06:12:21;;;;;;;5.55;5.05;;;18.90;60.00;;;;;;5115756;28;20177;-60
2023/05/07 06:14:46;;;;;;;5.68;5.00;;;18.90;59.90;;;;;;5115945;28;20173;-60
2023/05/07 06:17:12;;;;;;;13.15;5.03;;;18.90;59.90;;;;;;5114801;28;20181;-60
2023/05/07 06:19:37;;;;;;;5.50;5.00;;;18.90;59.90;;;;;;5115553;28;20200;-61
2023/05/07 06:22:03;;;;;;;5.60;4.95;;;18.90;59.90;;;;;;5115294;28;20277;-60
2023/05/07 06:24:28;;;;;;;5.53;5.03;;;18.90;60.00;;;;;;5114540;28;20181;-60
2023/05/07 06:26:54;;;;;;;5.63;5.10;;;18.80;59.90;;;;;;5115785;28;20635;-61
2023/05/07 06:29:19;;;;;;;5.10;4.60;;;18.80;59.90;;;;;;5114672;28;20177;-61
2023/05/07 06:31:45;;;;;;;5.05;4.65;;;18.90;59.90;;;;;;5115422;28;20585;-61
2023/05/07 06:34:13;;;;;;;4.80;4.40;;;18.90;60.00;;;;;;5115235;28;20565;-61
2023/05/07 06:36:40;;;;;;;4.82;4.43;;;18.90;60.00;;;;;;5114687;28;20224;-61
2023/05/07 06:39:05;;;;;;;5.57;5.07;;;18.90;60.00;;;;;;5115037;28;20184;-61
2023/05/07 06:41:31;;;;;;;5.70;5.20;;;18.90;60.00;;;;;;5115196;28;20574;-60
2023/05/07 06:43:56;;;;;;;4.65;4.25;;;18.90;60.00;;;;;;5113860;28;20177;-61
2023/05/07 06:46:22;;;;;;;4.95;4.55;;;18.90;60.00;;;;;;5114200;28;20199;-60
2023/05/07 06:48:47;;;;;;;5.45;4.95;;;18.90;60.00;;;;;;5114824;28;20199;-60
2023/05/07 06:51:13;;;;;;;5.25;4.75;;;18.90;60.00;;;;;;5113766;28;20647;-60
2023/05/07 06:53:39;;;;;;;4.95;4.45;;;18.90;60.00;;;;;;5114876;28;20173;-60
2023/05/07 06:56:05;;;;;;;4.97;4.50;;;18.90;60.00;;;;;;5114957;28;20177;-60
2023/05/07 06:58:30;;;;;;;4.82;4.15;;;18.90;60.00;;;;;;5113638;28;20165;-60
2023/05/07 07:00:56;;;;;;;5.20;4.47;;;18.90;60.00;;;;;;5114982;28;20185;-61
2023/05/07 07:03:21;;;;;;;5.10;4.68;;;18.90;60.00;;;;;;5114564;28;20217;-60
2023/05/07 07:05:47;;;;;;;4.88;4.47;;;18.90;60.00;;;;;;5114108;28;20173;-60
2023/05/07 07:08:12;;;;;;;4.63;4.22;;;18.90;60.00;;;;;;5114018;28;20181;-60
2023/05/07 07:10:38;;;;;;;5.25;4.75;;;18.90;60.00;;;;;;5114613;28;20180;-60
2023/05/07 07:13:03;;;;;;;5.18;4.53;;;18.90;60.00;;;;;;5113547;28;20217;-60
2023/05/07 07:15:29;;;;;;;4.45;4.05;;;18.90;60.00;;;;;;5113949;28;20170;-60
2023/05/07 07:17:54;;;;;;;5.57;5.07;;;18.90;60.00;;;;;;5114463;28;20169;-60
2023/05/07 07:20:20;;;;;;;4.38;3.97;;;18.90;60.00;;;;;;5113167;28;20298;-60
2023/05/07 07:22:45;;;;;;;4.60;4.13;;;18.90;59.90;;;;;;5113683;28;20246;-60
2023/05/07 07:25:11;;;;;;;4.38;4.07;;;18.90;60.00;;;;;;5114350;28;20177;-60
2023/05/07 07:27:37;;;;;;;4.03;3.67;;;18.80;59.90;;;;;;5113822;28;20177;-60
2023/05/07 07:30:03;;;;;;;4.80;4.40;;;18.90;59.90;;;;;;5114219;28;20192;-61
2023/05/07 07:32:29;;;;;;;4.72;4.32;;;18.90;59.90;;;;;;5114007;28;20181;-61
2023/05/07 07:34:54;;;;;;;4.25;3.90;;;18.90;59.90;;;;;;5113340;28;20185;-61
2023/05/07 07:37:20;;;;;;;4.53;3.85;;;18.90;59.90;;;;;;5113552;28;20191;-60
2023/05/07 07:39:45;;;;;;;3.85;3.55;;;18.90;59.90;;;;;;5113265;28;20252;-61
2023/05/07 07:42:11;;;;;;;4.32;3.92;;;18.90;60.00;;;;;;5113763;28;20667;-61
2023/05/07 07:44:36;;;;;;;4.65;4.25;;;18.90;60.00;;;;;;5114320;28;20553;-61
2023/05/07 07:47:02;;;;;;;4.68;4.25;;;19.00;60.00;;;;;;5113501;28;20180;-60
2023/05/07 07:49:27;;;;;;;4.80;4.40;;;18.90;60.00;;;;;;5113601;28;20243;-60
2023/05/07 07:51:53;;;;;;;4.65;4.25;;;18.90;60.00;;;;;;5113194;28;20165;-60
2023/05/07 07:54:18;;;;;;;4.72;4.32;;;19.00;60.00;;;;;;5112942;28;20505;-60
2023/05/07 07:56:44;;;;;;;4.25;3.85;;;19.00;60.00;;;;;;5113688;28;20522;-60
2023/05/07 07:59:10;;;;;;;4.47;4.07;;;18.90;60.00;;;;;;5113298;28;20226;-61
2023/05/07 08:01:35;;;;;;;4.95;4.45;;;18.90;60.00;;;;;;5113025;28;20506;-62
2023/05/07 08:04:02;;;;;;;4.85;4.45;;;19.00;60.10;;;;;;5113697;28;20553;-61
2023/05/07 08:06:28;;;;;;;4.38;3.97;;;19.00;60.00;;;;;;5113291;28;20218;-61
2023/05/07 08:08:54;;;;;;;4.40;4.03;;;19.00;60.10;;;;;;5112726;28;20204;-60
2023/05/07 08:11:19;;;;;;;4.70;4.30;;;19.00;60.00;;;;;;5112973;28;20643;-60
2023/05/07 08:13:45;;;;;;;5.22;3.88;;;19.00;60.10;;;;;;5113711;28;20234;-60
2023/05/07 08:16:11;;;;;;;4.65;4.22;;;19.00;60.00;;;;;;5112553;28;20218;-60
2023/05/07 08:18:36;;;;;;;4.50;4.10;;;19.00;60.10;;;;;;5113271;28;20593;-60
2023/05/07 08:21:02;;;;;;;4.18;3.88;;;19.00;60.00;;;;;;5113288;28;20697;-60
2023/05/07 08:23:27;;;;;;;4.75;4.35;;;19.00;60.00;;;;;;5111170;28;20217;-60
2023/05/07 08:25:53;;;;;;;4.15;3.85;;;19.00;60.10;;;;;;5113404;28;20205;-60
2023/05/07 08:28:19;;;;;;;4.45;4.05;;;19.00;60.10;;;;;;5113017;28;20197;-61
2023/05/07 08:30:45;;;;;;;4.10;3.63;;;19.00;60.10;;;;;;5112203;28;20181;-61
2023/05/07 08:33:10;;;;;;;4.13;3.83;;;19.00;60.10;;;;;;5113080;28;20181;-61
2023/05/07 08:35:36;;;;;;;4.45;4.07;;;19.00;60.10;;;;;;5113407;28;20214;-61
2023/05/07 08:38:01;;;;;;;4.00;3.70;;;19.00;60.00;;;;;;5112577;28;20180;-61
2023/05/07 08:40:27;;;;;;;4.88;4.38;;;19.00;60.10;;;;;;5112974;28;20175;-61
2023/05/07 08:42:53;;;;;;;4.70;3.90;;;19.00;60.10;;;;;;5112209;28;20209;-60
2023/05/07 08:45:19;;;;;;;3.92;3.63;;;19.00;60.00;;;;;;5112626;28;20177;-60
2023/05/07 08:47:46;;;;;;;4.40;4.00;;;19.00;60.00;;;;;;5113307;28;20712;-61
2023/05/07 08:50:12;;;;;;;4.68;4.28;;;19.00;60.90;;;;;;5110289;28;20550;-60
2023/05/07 08:52:38;;;;;;;4.43;4.03;;;19.00;60.00;;;;;;5112509;28;20177;-60
2023/05/07 08:55:04;;;;;;;4.20;3.83;;;19.00;60.00;;;;;;5095191;28;20173;-60
2023/05/07 08:57:30;;;;;;;4.40;4.00;;;19.00;59.90;;;;;;5112347;28;20177;-60
2023/05/07 08:59:55;;;;;;;4.28;3.88;;;19.00;59.90;;;;;;5113116;28;20295;-60
2023/05/07 09:02:21;;;;;;;4.05;3.75;;;19.00;59.90;;;;;;5112636;28;20193;-60
2023/05/07 09:04:46;;;;;;;4.28;3.97;;;19.00;59.90;;;;;;5112336;28;20546;-60
2023/05/07 09:07:12;;;;;;;4.40;4.00;;;19.00;59.90;;;;;;5113009;28;20642;-60
2023/05/07 09:09:38;;;;;;;4.22;3.92;;;19.10;59.90;;;;;;5111771;28;20306;-60
2023/05/07 09:12:03;;;;;;;4.40;4.00;;;19.10;59.90;;;;;;5112431;28;20196;-60
2023/05/07 09:14:30;;;;;;;3.97;3.67;;;19.10;59.90;;;;;;5112590;28;20177;-60
2023/05/07 09:16:56;;;;;;;4.25;3.85;;;19.10;59.80;;;;;;5112963;28;20282;-61
2023/05/07 09:19:24;;;;;;;5.07;4.57;;;19.20;60.10;;;;;;5111615;28;20548;-61
2023/05/07 09:21:57;;;;;;;7.30;6.60;;;19.30;60.60;;;;;;5112227;28;20617;-61
2023/05/07 09:24:22;;;;;;;203.43;155.75;;;19.30;61.00;;;;;;5112695;28;20185;-61
2023/05/07 09:26:48;;;;;;;143.23;109.30;;;19.30;61.90;;;;;;5112051;28;20680;-62
2023/05/07 09:29:15;;;;;;;175.38;134.20;;;19.40;62.50;;;;;;5112283;28;20165;-63
2023/05/07 09:31:41;;;;;;;322.80;223.65;;;19.40;61.70;;;;;;5111632;28;20170;-64
2023/05/07 09:34:06;;;;;;;167.88;115.95;;;19.50;62.20;;;;;;5111644;28;20177;-62
2023/05/07 09:36:32;;;;;;;268.50;185.05;;;19.50;61.70;;;;;;5112417;28;20220;-63
2023/05/07 09:38:59;;;;;;;266.77;188.52;;;19.50;62.00;;;;;;5112814;28;20227;-60
2023/05/07 09:41:25;;;;;;;305.38;215.60;;;19.60;62.40;;;;;;5113064;28;20177;-60
2023/05/07 09:43:53;;;;;;;288.20;213.85;;;19.60;62.50;;;;;;5113672;28;20258;-59
2023/05/07 09:46:24;;;;;;;198.52;140.32;;;19.60;63.50;;;;;;5114695;28;20223;-60
2023/05/07 09:48:49;;;;;;;130.90;97.28;;;19.70;64.10;;;;;;5115183;28;20184;-60
2023/05/07 09:51:28;;;;;;;138.88;101.55;;;19.70;64.50;;;;;;5115986;28;20173;-59
2023/05/07 09:53:54;;;;;;;80.22;59.83;;;19.80;64.60;;;;;;5115474;28;20537;-59
2023/05/07 09:56:19;;;;;;;120.53;88.25;;;19.80;65.20;;;;;;5115305;28;20181;-60
2023/05/07 09:58:45;;;;;;;111.28;83.75;;;19.90;65.00;;;;;;5116053;27;20711;-60
2023/05/07 10:01:11;;;;;;;96.38;70.32;;;19.90;65.00;;;;;;5115027;28;20178;-59
2023/05/07 10:03:37;;;;;;;73.07;55.92;;;20.00;64.70;;;;;;5115774;28;20592;-60
2023/05/07 10:06:03;;;;;;;43.42;35.30;;;20.00;65.00;;;;;;5115587;28;20177;-59
2023/05/07 10:08:29;;;;;;;61.53;46.72;;;20.10;65.50;;;;;;5113693;28;20192;-60
2023/05/07 10:10:55;;;;;;;37.10;31.10;;;20.00;65.20;;;;;;5115926;28;20687;-60
2023/05/07 10:13:20;;;;;;;49.67;39.65;;;20.10;66.00;;;;;;5115603;28;20246;-60
2023/05/07 10:15:46;;;;;;;49.03;38.15;;;20.10;65.50;;;;;;5113582;28;20302;-60
2023/05/07 10:18:12;;;;;;;47.78;37.30;;;20.10;65.40;;;;;;5114051;28;20665;-60
2023/05/07 10:20:38;;;;;;;52.22;40.65;;;20.10;65.40;;;;;;5097304;28;20515;-61
2023/05/07 10:23:04;;;;;;;48.65;38.38;;;20.10;65.20;;;;;;5096814;28;20704;-60
2023/05/07 10:25:31;;;;;;;50.67;40.20;;;20.10;65.10;;;;;;5114710;28;20184;-61
2023/05/07 10:28:05;;;;;;;52.80;39.53;;;20.20;65.10;;;;;;5115312;28;20181;-61
2023/05/07 10:31:01;;;;;;;52.60;41.13;;;20.20;64.90;;;;;;5097829;28;20623;-62
2023/05/07 10:33:27;;;;;;;52.45;39.47;;;20.20;64.80;;;;;;5115244;28;20169;-66
2023/05/07 10:35:52;;;;;;;57.95;42.72;;;20.20;64.50;;;;;;5113159;28;20346;-67
2023/05/07 10:38:18;;;;;;;57.83;42.22;;;20.30;64.60;;;;;;5113899;28;20181;-66
2023/05/07 10:40:44;;;;;;;60.45;43.03;;;20.40;65.20;;;;;;5115215;28;20215;-63
2023/05/07 10:43:10;;;;;;;60.63;42.83;;;20.40;64.00;;;;;;5114158;28;20212;-60
2023/05/07 10:45:35;;;;;;;61.42;42.50;;;20.40;63.70;;;;;;5115065;28;20177;-62
2023/05/07 10:48:10;;;;;;;59.60;42.15;;;20.50;63.60;;;;;;5114801;28;20235;-61
2023/05/07 10:50:42;;;;;;;55.78;41.70;;;20.50;63.50;;;;;;5114289;28;20229;-62
2023/05/07 10:53:17;;;;;;;60.25;43.50;;;20.50;63.50;;;;;;5114126;28;20262;-61
2023/05/07 10:55:50;;;;;;;59.72;42.80;;;20.50;63.30;;;;;;5115030;28;20187;-61
2023/05/07 10:58:21;;;;;;;60.95;43.08;;;20.50;63.30;;;;;;5113640;28;20631;-63
2023/05/07 11:00:48;;;;;;;58.60;42.22;;;20.50;63.70;;;;;;5114484;28;20184;-62
2023/05/07 11:03:14;;;;;;;55.83;42.33;;;20.50;63.50;;;;;;5114477;28;20205;-62
2023/05/07 11:05:40;;;;;;;57.28;42.25;;;20.50;63.60;;;;;;5113743;28;20180;-63
2023/05/07 11:08:06;;;;;;;60.05;44.17;;;20.50;63.60;;;;;;5114331;28;20177;-62
2023/05/07 11:10:48;;;;;;;57.90;44.55;;;20.50;63.50;;;;;;5114738;28;20234;-61
2023/05/07 11:13:13;;;;;;;60.47;43.58;;;20.50;63.40;;;;;;5114116;28;20184;-60
2023/05/07 11:15:46;;;;;;;61.08;44.63;;;20.60;63.50;;;;;;5113067;28;20173;-61
2023/05/07 11:18:13;;;;;;;56.80;42.42;;;20.60;63.40;;;;;;5113158;28;20201;-61
2023/05/07 11:20:54;;;;;;;62.25;44.00;;;20.70;63.30;;;;;;5114331;28;20618;-61
2023/05/07 11:23:52;;;;;;;61.60;43.97;;;20.70;63.30;;;;;;5113954;28;20221;-61
2023/05/07 11:26:18;;;;;;;62.13;43.08;;;20.70;63.20;;;;;;5098823;28;20184;-62
2023/05/07 11:28:43;;;;;;;58.22;43.40;;;20.80;63.20;;;;;;5112742;28;20177;-62
2023/05/07 11:31:10;;;;;;;59.83;44.47;;;20.80;63.20;;;;;;5114040;28;20161;-63
2023/05/07 11:33:36;;;;;;;57.15;43.08;;;20.80;63.40;;;;;;5113668;28;20177;-62
2023/05/07 11:36:05;;;;;;;57.88;42.15;;;20.70;63.30;;;;;;5113973;28;20273;-63
2023/05/07 11:38:31;;;;;;;56.40;40.65;;;20.70;63.40;;;;;;5114185;28;20177;-62
2023/05/07 11:41:00;;;;;;;54.85;41.13;;;20.70;63.40;;;;;;5112032;28;20554;-62
2023/05/07 11:43:26;;;;;;;53.60;38.85;;;20.70;63.50;;;;;;5113948;28;20216;-62
2023/05/07 11:45:52;;;;;;;50.80;38.35;;;20.60;63.50;;;;;;5113279;28;20249;-62
2023/05/07 11:48:17;;;;;;;53.08;38.53;;;20.70;63.60;;;;;;5111702;28;20609;-62
2023/05/07 11:50:59;;;;;;;50.72;38.50;;;20.70;63.60;;;;;;5113553;28;20173;-61
2023/05/07 11:53:25;;;;;;;47.75;34.78;;;20.70;63.60;;;;;;5112931;28;20635;-62
2023/05/07 11:55:55;;;;;;;46.45;35.60;;;20.70;63.90;;;;;;5113588;28;20226;-60
2023/05/07 11:58:22;;;;;;;45.88;32.60;;;20.70;63.70;;;;;;5113252;28;20199;-60
2023/05/07 12:00:53;;;;;;;36.40;27.60;;;20.70;63.70;;;;;;5112452;28;20221;-61
2023/05/07 12:03:19;;;;;;;33.63;23.80;;;20.70;63.30;;;;;;5116334;27;20212;-60
2023/05/07 12:05:46;;;;;;;33.47;23.63;;;20.80;63.40;;;;;;5113058;28;20202;-60
2023/05/07 12:08:15;;;;;;;26.50;20.25;;;20.80;63.10;;;;;;5112470;28;20177;-60
2023/05/07 12:10:45;;;;;;;24.60;20.27;;;20.80;62.90;;;;;;5113329;28;20658;-60
2023/05/07 12:13:24;;;;;;;22.60;18.42;;;20.90;62.80;;;;;;5113266;28;20184;-60
2023/05/07 12:15:53;;;;;;;20.33;16.65;;;20.90;62.50;;;;;;5112317;28;20181;-60
2023/05/07 12:18:19;;;;;;;19.92;15.45;;;20.90;62.50;;;;;;5113156;28;20181;-60
2023/05/07 12:20:45;;;;;;;17.13;14.48;;;21.00;61.90;;;;;;5111802;28;20196;-60
2023/05/07 12:23:10;;;;;;;15.70;14.10;;;21.10;61.80;;;;;;5110773;28;20295;-59
2023/05/07 12:25:37;;;;;;;14.65;12.63;;;21.10;61.40;;;;;;5112504;28;20666;-60
2023/05/07 12:28:04;;;;;;;13.30;11.88;;;21.10;61.40;;;;;;5111531;28;20282;-60
2023/05/07 12:30:37;;;;;;;13.13;11.30;;;21.00;61.40;;;;;;5113052;28;20181;-61